sensor_id;sensor_type;location;lat;lon;timestamp;pressure;altitude;pressure_sealevel;temperature;humidity
68193;BME280;55012;47.562;18.414;2023-01-10T00:00:47;98473.84;;;4.47;100.00
68193;BME280;55012;47.562;18.414;2023-01-10T00:03:12;98470.56;;;4.41;100.00
68193;BME280;55012;47.562;18.414;2023-01-10T00:05:38;98470.56;;;4.41;100.00
68193;BME280;55012;47.562;18.414;2023-01-10T00:08:06;98467.88;;;4.41;100.00
68193;BME280;55012;47.562;18.414;2023-01-10T00:10:33;98477.94;;;4.44;100.00
68193;BME280;55012;47.562;18.414;2023-01-10T00:12:59;98490.25;;;4.37;100.00
68193;BME280;55012;47.562;18.414;2023-01-10T00:15:44;98481.94;;;4.30;100.00
68193;BME280;55012;47.562;18.414;2023-01-10T00:18:09;98480.41;;;4.20;100.00
68193;BME280;55012;47.562;18.414;2023-01-10T00:20:35;98485.75;;;4.20;100.00
68193;BME280;55012;47.562;18.414;2023-01-10T00:23:01;98487.81;;;4.23;100.00
68193;BME280;55012;47.562;18.414;2023-01-10T00:25:28;98486.88;;;4.19;100.00
68193;BME280;55012;47.562;18.414;2023-01-10T00:27:54;98484.84;;;4.16;100.00
68193;BME280;55012;47.562;18.414;2023-01-10T00:30:38;98499.19;;;4.11;100.00
68193;BME280;55012;47.562;18.414;2023-01-10T00:33:07;98492.13;;;4.07;100.00
68193;BME280;55012;47.562;18.414;2023-01-10T00:35:33;98506.44;;;4.02;100.00
68193;BME280;55012;47.562;18.414;2023-01-10T00:37:58;98545.34;;;4.00;100.00
68193;BME280;55012;47.562;18.414;2023-01-10T00:40:31;98567.88;;;3.99;100.00
68193;BME280;55012;47.562;18.414;2023-01-10T00:42:57;98564.25;;;3.94;100.00
68193;BME280;55012;47.562;18.414;2023-01-10T00:45:43;98557.31;;;3.93;100.00
68193;BME280;55012;47.562;18.414;2023-01-10T00:48:09;98556.22;;;3.94;100.00
68193;BME280;55012;47.562;18.414;2023-01-10T00:50:35;98557.19;;;3.90;100.00
68193;BME280;55012;47.562;18.414;2023-01-10T00:53:00;98558.75;;;3.91;100.00
68193;BME280;55012;47.562;18.414;2023-01-10T00:55:26;98573.53;;;3.88;100.00
68193;BME280;55012;47.562;18.414;2023-01-10T00:57:52;98593.06;;;3.89;100.00
68193;BME280;55012;47.562;18.414;2023-01-10T01:00:18;98580.16;;;3.82;100.00
68193;BME280;55012;47.562;18.414;2023-01-10T01:02:43;98574.50;;;3.75;100.00
68193;BME280;55012;47.562;18.414;2023-01-10T01:05:08;98578.28;;;3.74;100.00
68193;BME280;55012;47.562;18.414;2023-01-10T01:07:34;98585.81;;;3.72;100.00
68193;BME280;55012;47.562;18.414;2023-01-10T01:10:00;98576.84;;;3.68;100.00
68193;BME280;55012;47.562;18.414;2023-01-10T01:12:44;98597.78;;;3.66;100.00
68193;BME280;55012;47.562;18.414;2023-01-10T01:15:09;98593.84;;;3.63;100.00
68193;BME280;55012;47.562;18.414;2023-01-10T01:17:36;98586.91;;;3.62;100.00
68193;BME280;55012;47.562;18.414;2023-01-10T01:20:02;98595.56;;;3.59;100.00
68193;BME280;55012;47.562;18.414;2023-01-10T01:22:27;98586.91;;;3.54;100.00
68193;BME280;55012;47.562;18.414;2023-01-10T01:24:53;98595.25;;;3.52;100.00
68193;BME280;55012;47.562;18.414;2023-01-10T01:27:18;98584.41;;;3.49;100.00
68193;BME280;55012;47.562;18.414;2023-01-10T01:29:45;98578.41;;;3.43;100.00
68193;BME280;55012;47.562;18.414;2023-01-10T01:32:10;98584.09;;;3.42;100.00
68193;BME280;55012;47.562;18.414;2023-01-10T01:34:36;98587.06;;;3.40;100.00
68193;BME280;55012;47.562;18.414;2023-01-10T01:37:01;98576.38;;;3.31;100.00
68193;BME280;55012;47.562;18.414;2023-01-10T01:39:27;98580.91;;;3.22;100.00
68193;BME280;55012;47.562;18.414;2023-01-10T01:41:52;98602.44;;;3.17;100.00
68193;BME280;55012;47.562;18.414;2023-01-10T01:44:29;98598.19;;;3.16;100.00
68193;BME280;55012;47.562;18.414;2023-01-10T01:46:59;98611.06;;;3.14;100.00
68193;BME280;55012;47.562;18.414;2023-01-10T01:49:26;98593.00;;;3.11;100.00
68193;BME280;55012;47.562;18.414;2023-01-10T01:51:58;98597.22;;;3.12;100.00
68193;BME280;55012;47.562;18.414;2023-01-10T01:54:25;98613.25;;;3.12;100.00
68193;BME280;55012;47.562;18.414;2023-01-10T01:57:04;98623.63;;;3.14;100.00
68193;BME280;55012;47.562;18.414;2023-01-10T01:59:38;98619.72;;;3.11;100.00
68193;BME280;55012;47.562;18.414;2023-01-10T02:02:19;98620.69;;;3.15;100.00
68193;BME280;55012;47.562;18.414;2023-01-10T02:05:19;98623.63;;;3.14;100.00
68193;BME280;55012;47.562;18.414;2023-01-10T02:07:39;98628.97;;;3.14;100.00
68193;BME280;55012;47.562;18.414;2023-01-10T02:10:16;98632.44;;;3.14;100.00
68193;BME280;55012;47.562;18.414;2023-01-10T02:12:44;98633.84;;;3.12;100.00
68193;BME280;55012;47.562;18.414;2023-01-10T02:15:12;98636.84;;;3.10;100.00
68193;BME280;55012;47.562;18.414;2023-01-10T02:17:38;98640.31;;;3.10;100.00
68193;BME280;55012;47.562;18.414;2023-01-10T02:20:08;98654.44;;;3.11;100.00
68193;BME280;55012;47.562;18.414;2023-01-10T02:31:14;98679.78;;;3.22;100.00
68193;BME280;55012;47.562;18.414;2023-01-10T02:36:30;98678.56;;;3.28;100.00
68193;BME280;55012;47.562;18.414;2023-01-10T02:39:22;98703.88;;;3.31;100.00
68193;BME280;55012;47.562;18.414;2023-01-10T02:42:00;98714.56;;;3.31;100.00
68193;BME280;55012;47.562;18.414;2023-01-10T02:47:15;98729.81;;;3.30;100.00
68193;BME280;55012;47.562;18.414;2023-01-10T02:52:07;98737.06;;;3.30;100.00
68193;BME280;55012;47.562;18.414;2023-01-10T02:54:32;98735.47;;;3.29;100.00
68193;BME280;55012;47.562;18.414;2023-01-10T03:00:07;98771.53;;;3.31;100.00
68193;BME280;55012;47.562;18.414;2023-01-10T03:10:57;98771.34;;;3.28;100.00
68193;BME280;55012;47.562;18.414;2023-01-10T03:13:28;98777.00;;;3.26;100.00
68193;BME280;55012;47.562;18.414;2023-01-10T03:15:58;98784.38;;;3.29;100.00
68193;BME280;55012;47.562;18.414;2023-01-10T03:18:50;98828.56;;;3.27;100.00
68193;BME280;55012;47.562;18.414;2023-01-10T03:21:18;98818.00;;;3.22;100.00
68193;BME280;55012;47.562;18.414;2023-01-10T03:23:46;98812.00;;;3.16;100.00
68193;BME280;55012;47.562;18.414;2023-01-10T03:26:14;98863.38;;;3.13;100.00
68193;BME280;55012;47.562;18.414;2023-01-10T03:28:48;98816.78;;;3.05;100.00
68193;BME280;55012;47.562;18.414;2023-01-10T03:31:25;98823.84;;;3.01;100.00
68193;BME280;55012;47.562;18.414;2023-01-10T03:33:52;98841.88;;;2.96;100.00
68193;BME280;55012;47.562;18.414;2023-01-10T03:38:56;98807.28;;;2.91;100.00
68193;BME280;55012;47.562;18.414;2023-01-10T03:41:42;98830.66;;;2.85;100.00
68193;BME280;55012;47.562;18.414;2023-01-10T03:47:24;98817.25;;;2.76;100.00
68193;BME280;55012;47.562;18.414;2023-01-10T03:49:58;98820.22;;;2.75;100.00
68193;BME280;55012;47.562;18.414;2023-01-10T03:52:25;98809.84;;;2.73;100.00
68193;BME280;55012;47.562;18.414;2023-01-10T03:54:51;98834.38;;;2.75;100.00
68193;BME280;55012;47.562;18.414;2023-01-10T03:57:23;98814.38;;;2.73;100.00
68193;BME280;55012;47.562;18.414;2023-01-10T03:59:54;98844.84;;;2.72;100.00
68193;BME280;55012;47.562;18.414;2023-01-10T04:02:24;98871.84;;;2.70;100.00
68193;BME280;55012;47.562;18.414;2023-01-10T04:04:51;99180.88;;;2.70;100.00
68193;BME280;55012;47.562;18.414;2023-01-10T04:07:16;99171.00;;;2.70;100.00
68193;BME280;55012;47.562;18.414;2023-01-10T04:09:42;99187.25;;;2.74;100.00
68193;BME280;55012;47.562;18.414;2023-01-10T04:12:07;99186.66;;;2.77;100.00
68193;BME280;55012;47.562;18.414;2023-01-10T04:14:32;99194.34;;;2.78;100.00
68193;BME280;55012;47.562;18.414;2023-01-10T04:16:58;99189.00;;;2.78;100.00
68193;BME280;55012;47.562;18.414;2023-01-10T04:19:24;99207.81;;;2.73;100.00
68193;BME280;55012;47.562;18.414;2023-01-10T04:21:50;99194.47;;;2.73;100.00
68193;BME280;55012;47.562;18.414;2023-01-10T04:24:15;99216.09;;;2.72;100.00
68193;BME280;55012;47.562;18.414;2023-01-10T04:26:40;99175.78;;;2.73;100.00
68193;BME280;55012;47.562;18.414;2023-01-10T04:29:06;99182.59;;;2.79;100.00
68193;BME280;55012;47.562;18.414;2023-01-10T04:31:31;99184.28;;;2.75;100.00
68193;BME280;55012;47.562;18.414;2023-01-10T04:33:57;99187.25;;;2.74;100.00
68193;BME280;55012;47.562;18.414;2023-01-10T04:36:22;99197.41;;;2.72;100.00
68193;BME280;55012;47.562;18.414;2023-01-10T04:38:48;99187.03;;;2.70;100.00
68193;BME280;55012;47.562;18.414;2023-01-10T04:41:13;99201.97;;;2.71;100.00
68193;BME280;55012;47.562;18.414;2023-01-10T04:43:39;99206.50;;;2.71;100.00
68193;BME280;55012;47.562;18.414;2023-01-10T04:46:04;99255.38;;;2.71;100.00
68193;BME280;55012;47.562;18.414;2023-01-10T04:48:30;99201.75;;;2.68;100.00
68193;BME280;55012;47.562;18.414;2023-01-10T04:50:55;99214.03;;;2.69;100.00
68193;BME280;55012;47.562;18.414;2023-01-10T04:53:21;99215.59;;;2.70;100.00
68193;BME280;55012;47.562;18.414;2023-01-10T04:55:46;99254.59;;;2.71;100.00
68193;BME280;55012;47.562;18.414;2023-01-10T04:58:12;99218.78;;;2.72;100.00
68193;BME280;55012;47.562;18.414;2023-01-10T05:00:38;99217.69;;;2.73;100.00
68193;BME280;55012;47.562;18.414;2023-01-10T05:03:03;99230.53;;;2.71;100.00
68193;BME280;55012;47.562;18.414;2023-01-10T05:05:30;99264.72;;;2.74;100.00
68193;BME280;55012;47.562;18.414;2023-01-10T05:07:56;99247.88;;;2.73;100.00
68193;BME280;55012;47.562;18.414;2023-01-10T05:10:21;99282.31;;;2.75;100.00
68193;BME280;55012;47.562;18.414;2023-01-10T05:12:47;99267.09;;;2.75;100.00
68193;BME280;55012;47.562;18.414;2023-01-10T05:15:13;99289.72;;;2.78;100.00
68193;BME280;55012;47.562;18.414;2023-01-10T05:17:38;99295.38;;;2.76;100.00
68193;BME280;55012;47.562;18.414;2023-01-10T05:20:04;99288.75;;;2.74;100.00
68193;BME280;55012;47.562;18.414;2023-01-10T05:22:30;99327.72;;;2.75;100.00
68193;BME280;55012;47.562;18.414;2023-01-10T05:24:56;99290.63;;;2.73;100.00
68193;BME280;55012;47.562;18.414;2023-01-10T05:27:21;99299.63;;;2.77;100.00
68193;BME280;55012;47.562;18.414;2023-01-10T05:29:47;99307.94;;;2.76;100.00
68193;BME280;55012;47.562;18.414;2023-01-10T05:32:12;99301.50;;;2.77;100.00
68193;BME280;55012;47.562;18.414;2023-01-10T05:34:37;99312.69;;;2.79;100.00
68193;BME280;55012;47.562;18.414;2023-01-10T05:37:03;99304.69;;;2.79;100.00
68193;BME280;55012;47.562;18.414;2023-01-10T05:39:28;99288.16;;;2.77;100.00
68193;BME280;55012;47.562;18.414;2023-01-10T05:41:54;99279.34;;;2.76;100.00
68193;BME280;55012;47.562;18.414;2023-01-10T05:44:19;99291.13;;;2.75;100.00
68193;BME280;55012;47.562;18.414;2023-01-10T05:46:45;99278.06;;;2.74;100.00
68193;BME280;55012;47.562;18.414;2023-01-10T05:49:10;99275.38;;;2.74;100.00
68193;BME280;55012;47.562;18.414;2023-01-10T05:51:36;99273.59;;;2.69;100.00
68193;BME280;55012;47.562;18.414;2023-01-10T05:54:01;99279.13;;;2.73;100.00
68193;BME280;55012;47.562;18.414;2023-01-10T05:56:27;99276.75;;;2.71;100.00
68193;BME280;55012;47.562;18.414;2023-01-10T05:58:53;99292.78;;;2.71;100.00
68193;BME280;55012;47.562;18.414;2023-01-10T06:01:19;99320.06;;;2.68;100.00
68193;BME280;55012;47.562;18.414;2023-01-10T06:03:44;99277.13;;;2.65;100.00
68193;BME280;55012;47.562;18.414;2023-01-10T06:06:10;99271.78;;;2.65;100.00
68193;BME280;55012;47.562;18.414;2023-01-10T06:08:35;99272.84;;;2.64;100.00
68193;BME280;55012;47.562;18.414;2023-01-10T06:11:05;99282.19;;;2.66;100.00
68193;BME280;55012;47.562;18.414;2023-01-10T06:13:31;99288.81;;;2.69;100.00
68193;BME280;55012;47.562;18.414;2023-01-10T06:15:56;99301.88;;;2.70;100.00
68193;BME280;55012;47.562;18.414;2023-01-10T06:18:22;99320.56;;;2.70;100.00
68193;BME280;55012;47.562;18.414;2023-01-10T06:20:48;99323.75;;;2.72;100.00
68193;BME280;55012;47.562;18.414;2023-01-10T06:23:13;99342.44;;;2.72;100.00
68193;BME280;55012;47.562;18.414;2023-01-10T06:25:39;99325.13;;;2.70;100.00
68193;BME280;55012;47.562;18.414;2023-01-10T06:28:10;99321.84;;;2.73;100.00
68193;BME280;55012;47.562;18.414;2023-01-10T06:30:36;99378.47;;;2.75;100.00
68193;BME280;55012;47.562;18.414;2023-01-10T06:33:04;99364.59;;;2.73;100.00
68193;BME280;55012;47.562;18.414;2023-01-10T06:35:30;99343.81;;;2.70;100.00
68193;BME280;55012;47.562;18.414;2023-01-10T06:37:56;99349.94;;;2.70;100.00
68193;BME280;55012;47.562;18.414;2023-01-10T06:40:22;99349.66;;;2.72;100.00
68193;BME280;55012;47.562;18.414;2023-01-10T06:42:47;99396.94;;;2.71;100.00
68193;BME280;55012;47.562;18.414;2023-01-10T06:45:13;99373.78;;;2.67;100.00
68193;BME280;55012;47.562;18.414;2023-01-10T06:47:39;99373.78;;;2.67;100.00
68193;BME280;55012;47.562;18.414;2023-01-10T06:50:05;99393.28;;;2.67;100.00
68193;BME280;55012;47.562;18.414;2023-01-10T06:52:31;99364.97;;;2.66;100.00
68193;BME280;55012;47.562;18.414;2023-01-10T06:54:56;99376.16;;;2.68;100.00
68193;BME280;55012;47.562;18.414;2023-01-10T06:57:21;99386.84;;;2.68;100.00
68193;BME280;55012;47.562;18.414;2023-01-10T06:59:47;99361.72;;;2.69;100.00
68193;BME280;55012;47.562;18.414;2023-01-10T07:02:13;99381.50;;;2.68;100.00
68193;BME280;55012;47.562;18.414;2023-01-10T07:04:38;99398.63;;;2.67;100.00
68193;BME280;55012;47.562;18.414;2023-01-10T07:07:04;99372.13;;;2.71;100.00
68193;BME280;55012;47.562;18.414;2023-01-10T07:09:29;99397.19;;;2.75;100.00
68193;BME280;55012;47.562;18.414;2023-01-10T07:11:55;99385.97;;;2.73;100.00
68193;BME280;55012;47.562;18.414;2023-01-10T07:14:20;99439.47;;;2.68;100.00
68193;BME280;55012;47.562;18.414;2023-01-10T07:16:46;99414.66;;;2.67;100.00
68193;BME280;55012;47.562;18.414;2023-01-10T07:19:11;99443.72;;;2.69;100.00
68193;BME280;55012;47.562;18.414;2023-01-10T07:21:41;99441.84;;;2.69;100.00
68193;BME280;55012;47.562;18.414;2023-01-10T07:24:07;99473.16;;;2.64;100.00
68193;BME280;55012;47.562;18.414;2023-01-10T07:26:32;99456.06;;;2.65;100.00
68193;BME280;55012;47.562;18.414;2023-01-10T07:28:58;99464.06;;;2.65;100.00
68193;BME280;55012;47.562;18.414;2023-01-10T07:31:24;99454.47;;;2.64;100.00
68193;BME280;55012;47.562;18.414;2023-01-10T07:33:50;99464.06;;;2.65;100.00
68193;BME280;55012;47.562;18.414;2023-01-10T07:36:16;99475.84;;;2.64;100.00
68193;BME280;55012;47.562;18.414;2023-01-10T07:38:42;99511.13;;;2.61;100.00
68193;BME280;55012;47.562;18.414;2023-01-10T07:41:09;99477.00;;;2.58;100.00
68193;BME280;55012;47.562;18.414;2023-01-10T07:43:34;99478.59;;;2.59;100.00
68193;BME280;55012;47.562;18.414;2023-01-10T07:46:01;99468.41;;;2.61;100.00
68193;BME280;55012;47.562;18.414;2023-01-10T07:48:27;99476.22;;;2.57;100.00
68193;BME280;55012;47.562;18.414;2023-01-10T07:50:57;99492.75;;;2.59;100.00
68193;BME280;55012;47.562;18.414;2023-01-10T07:53:24;99475.41;;;2.57;100.00
68193;BME280;55012;47.562;18.414;2023-01-10T07:55:49;99529.66;;;2.52;100.00
68193;BME280;55012;47.562;18.414;2023-01-10T07:58:15;99502.22;;;2.46;100.00
68193;BME280;55012;47.562;18.414;2023-01-10T08:00:41;99485.75;;;2.39;100.00
68193;BME280;55012;47.562;18.414;2023-01-10T08:03:09;99500.97;;;2.39;100.00
68193;BME280;55012;47.562;18.414;2023-01-10T08:05:34;99501.50;;;2.41;100.00
68193;BME280;55012;47.562;18.414;2023-01-10T08:08:07;99546.31;;;2.44;100.00
68193;BME280;55012;47.562;18.414;2023-01-10T08:10:34;99574.09;;;2.43;100.00
68193;BME280;55012;47.562;18.414;2023-01-10T08:13:00;99501.72;;;2.44;100.00
68193;BME280;55012;47.562;18.414;2023-01-10T08:15:26;99574.09;;;2.43;100.00
68193;BME280;55012;47.562;18.414;2023-01-10T08:17:51;99554.09;;;2.40;100.00
68193;BME280;55012;47.562;18.414;2023-01-10T08:20:17;99531.13;;;2.39;100.00
68193;BME280;55012;47.562;18.414;2023-01-10T08:22:43;99554.91;;;2.41;100.00
68193;BME280;55012;47.562;18.414;2023-01-10T08:25:09;99605.56;;;2.46;100.00
68193;BME280;55012;47.562;18.414;2023-01-10T08:27:34;99565.78;;;2.44;100.00
68193;BME280;55012;47.562;18.414;2023-01-10T08:30:00;99615.44;;;2.45;100.00
68193;BME280;55012;47.562;18.414;2023-01-10T08:32:25;99595.97;;;2.45;100.00
68193;BME280;55012;47.562;18.414;2023-01-10T08:34:51;99598.13;;;2.43;100.00
68193;BME280;55012;47.562;18.414;2023-01-10T08:37:16;99583.97;;;2.42;100.00
68193;BME280;55012;47.562;18.414;2023-01-10T08:39:42;99598.44;;;2.36;100.00
68193;BME280;55012;47.562;18.414;2023-01-10T08:42:07;99597.88;;;2.39;100.00
68193;BME280;55012;47.562;18.414;2023-01-10T08:44:33;99617.34;;;2.40;100.00
68193;BME280;55012;47.562;18.414;2023-01-10T08:46:58;99657.94;;;2.42;100.00
68193;BME280;55012;47.562;18.414;2023-01-10T08:49:24;99661.44;;;2.37;100.00
68193;BME280;55012;47.562;18.414;2023-01-10T08:51:49;99641.94;;;2.42;100.00
68193;BME280;55012;47.562;18.414;2023-01-10T08:54:14;99676.91;;;2.40;100.00
68193;BME280;55012;47.562;18.414;2023-01-10T08:56:40;99599.25;;;2.37;100.00
68193;BME280;55012;47.562;18.414;2023-01-10T08:59:06;99616.31;;;2.41;100.00
68193;BME280;55012;47.562;18.414;2023-01-10T09:01:32;99580.72;;;2.45;100.00
68193;BME280;55012;47.562;18.414;2023-01-10T09:03:57;99574.03;;;2.48;100.00
68193;BME280;55012;47.562;18.414;2023-01-10T09:06:24;99560.91;;;2.51;100.00
68193;BME280;55012;47.562;18.414;2023-01-10T09:08:49;99485.66;;;2.49;100.00
68193;BME280;55012;47.562;18.414;2023-01-10T09:11:15;99505.06;;;2.55;100.00
68193;BME280;55012;47.562;18.414;2023-01-10T09:13:40;99451.94;;;2.53;100.00
68193;BME280;55012;47.562;18.414;2023-01-10T09:16:07;99460.75;;;2.54;100.00
68193;BME280;55012;47.562;18.414;2023-01-10T09:18:33;99446.59;;;2.53;100.00
68193;BME280;55012;47.562;18.414;2023-01-10T09:20:59;99428.13;;;2.57;100.00
68193;BME280;55012;47.562;18.414;2023-01-10T09:23:24;99417.16;;;2.59;100.00
68193;BME280;55012;47.562;18.414;2023-01-10T09:25:52;99445.97;;;2.62;100.00
68193;BME280;55012;47.562;18.414;2023-01-10T09:28:18;99447.78;;;2.66;100.00
68193;BME280;55012;47.562;18.414;2023-01-10T09:30:44;99402.09;;;2.68;100.00
68193;BME280;55012;47.562;18.414;2023-01-10T09:33:10;99370.59;;;2.65;100.00
68193;BME280;55012;47.562;18.414;2023-01-10T09:35:37;99297.03;;;2.72;100.00
68193;BME280;55012;47.562;18.414;2023-01-10T09:38:06;99214.22;;;2.72;100.00
68193;BME280;55012;47.562;18.414;2023-01-10T09:46:25;98788.16;;;2.75;100.00
68193;BME280;55012;47.562;18.414;2023-01-10T09:51:47;98778.06;;;2.72;100.00
68193;BME280;55012;47.562;18.414;2023-01-10T09:54:22;98807.97;;;2.74;100.00
68193;BME280;55012;47.562;18.414;2023-01-10T09:56:50;98812.31;;;2.70;100.00
68193;BME280;55012;47.562;18.414;2023-01-10T09:59:19;98787.00;;;2.67;100.00
68193;BME280;55012;47.562;18.414;2023-01-10T10:01:46;98789.38;;;2.69;100.00
68193;BME280;55012;47.562;18.414;2023-01-10T10:06:41;98754.81;;;2.72;100.00
68193;BME280;55012;47.562;18.414;2023-01-10T10:09:12;98762.06;;;2.72;100.00
68193;BME280;55012;47.562;18.414;2023-01-10T10:25:46;98769.16;;;2.76;100.00
68193;BME280;55012;47.562;18.414;2023-01-10T10:36:55;98756.44;;;2.73;100.00
68193;BME280;55012;47.562;18.414;2023-01-10T10:39:34;98763.34;;;2.74;100.00
68193;BME280;55012;47.562;18.414;2023-01-10T10:42:02;98773.72;;;2.76;100.00
68193;BME280;55012;47.562;18.414;2023-01-10T10:46:53;98747.19;;;2.79;100.00
68193;BME280;55012;47.562;18.414;2023-01-10T10:52:24;98570.91;;;2.79;100.00
68193;BME280;55012;47.562;18.414;2023-01-10T10:54:51;98518.25;;;2.80;100.00
68193;BME280;55012;47.562;18.414;2023-01-10T10:57:18;98487.78;;;2.81;100.00
68193;BME280;55012;47.562;18.414;2023-01-10T10:59:46;98490.31;;;2.86;100.00
68193;BME280;55012;47.562;18.414;2023-01-10T11:02:30;98485.75;;;2.87;100.00
68193;BME280;55012;47.562;18.414;2023-01-10T11:05:02;98480.72;;;2.85;100.00
68193;BME280;55012;47.562;18.414;2023-01-10T11:07:33;98501.63;;;2.83;100.00
68193;BME280;55012;47.562;18.414;2023-01-10T11:10:03;98480.09;;;2.79;100.00
68193;BME280;55012;47.562;18.414;2023-01-10T11:12:40;98468.16;;;2.86;100.00
68193;BME280;55012;47.562;18.414;2023-01-10T11:15:39;98476.31;;;2.89;100.00
68193;BME280;55012;47.562;18.414;2023-01-10T11:18:13;98542.03;;;2.90;100.00
68193;BME280;55012;47.562;18.414;2023-01-10T11:20:59;98503.53;;;2.91;100.00
68193;BME280;55012;47.562;18.414;2023-01-10T11:23:54;98480.75;;;2.94;100.00
68193;BME280;55012;47.562;18.414;2023-01-10T11:28:51;98395.88;;;2.99;100.00
68193;BME280;55012;47.562;18.414;2023-01-10T11:31:26;98331.13;;;3.02;100.00
68193;BME280;55012;47.562;18.414;2023-01-10T11:33:52;98320.91;;;3.04;100.00
68193;BME280;55012;47.562;18.414;2023-01-10T11:36:18;98368.53;;;3.02;100.00
68193;BME280;55012;47.562;18.414;2023-01-10T11:38:58;98332.38;;;3.05;100.00
68193;BME280;55012;47.562;18.414;2023-01-10T11:41:25;98346.22;;;3.07;100.00
68193;BME280;55012;47.562;18.414;2023-01-10T11:44:17;98351.69;;;3.10;100.00
68193;BME280;55012;47.562;18.414;2023-01-10T11:46:47;98318.06;;;3.09;100.00
68193;BME280;55012;47.562;18.414;2023-01-10T11:49:20;98341.78;;;3.11;100.00
68193;BME280;55012;47.562;18.414;2023-01-10T11:51:50;98318.53;;;3.12;100.00
68193;BME280;55012;47.562;18.414;2023-01-10T11:54:20;98361.47;;;3.15;100.00
68193;BME280;55012;47.562;18.414;2023-01-10T11:59:25;98356.09;;;3.15;100.00
68193;BME280;55012;47.562;18.414;2023-01-10T12:02:19;98314.91;;;3.16;100.00
68193;BME280;55012;47.562;18.414;2023-01-10T12:04:48;98353.13;;;3.17;100.00
68193;BME280;55012;47.562;18.414;2023-01-10T12:07:15;98364.59;;;3.17;100.00
68193;BME280;55012;47.562;18.414;2023-01-10T12:09:54;98321.84;;;3.17;100.00
68193;BME280;55012;47.562;18.414;2023-01-10T12:12:22;98357.19;;;3.23;100.00
68193;BME280;55012;47.562;18.414;2023-01-10T12:14:50;98308.78;;;3.24;100.00
68193;BME280;55012;47.562;18.414;2023-01-10T12:19:57;98348.38;;;3.22;100.00
68193;BME280;55012;47.562;18.414;2023-01-10T12:22:50;98359.22;;;3.26;100.00
68193;BME280;55012;47.562;18.414;2023-01-10T12:25:23;98330.94;;;3.25;100.00
68193;BME280;55012;47.562;18.414;2023-01-10T12:27:53;98341.44;;;3.30;100.00
68193;BME280;55012;47.562;18.414;2023-01-10T12:32:53;98350.25;;;3.30;100.00
68193;BME280;55012;47.562;18.414;2023-01-10T12:35:23;98355.59;;;3.30;100.00
68193;BME280;55012;47.562;18.414;2023-01-10T12:38:04;98351.84;;;3.31;100.00
68193;BME280;55012;47.562;18.414;2023-01-10T12:40:43;98325.09;;;3.31;100.00
68193;BME280;55012;47.562;18.414;2023-01-10T12:48:57;98328.38;;;3.37;100.00
68193;BME280;55012;47.562;18.414;2023-01-10T12:51:27;98337.66;;;3.40;100.00
68193;BME280;55012;47.562;18.414;2023-01-10T12:53:58;98273.97;;;3.42;100.00
68193;BME280;55012;47.562;18.414;2023-01-10T12:56:28;98268.75;;;3.45;100.00
68193;BME280;55012;47.562;18.414;2023-01-10T12:59:03;98290.59;;;3.47;100.00
68193;BME280;55012;47.562;18.414;2023-01-10T13:01:34;98293.75;;;3.49;100.00
68193;BME280;55012;47.562;18.414;2023-01-10T13:04:11;98285.56;;;3.46;100.00
68193;BME280;55012;47.562;18.414;2023-01-10T13:06:40;98297.38;;;3.45;100.00
68193;BME280;55012;47.562;18.414;2023-01-10T13:09:12;98282.88;;;3.46;100.00
68193;BME280;55012;47.562;18.414;2023-01-10T13:14:23;98304.56;;;3.53;100.00
68193;BME280;55012;47.562;18.414;2023-01-10T13:17:02;98269.97;;;3.56;100.00
68193;BME280;55012;47.562;18.414;2023-01-10T13:19:32;98268.53;;;3.59;100.00
68193;BME280;55012;47.562;18.414;2023-01-10T13:22:32;98275.91;;;3.62;100.00
68193;BME280;55012;47.562;18.414;2023-01-10T13:25:00;98272.28;;;3.66;100.00
68193;BME280;55012;47.562;18.414;2023-01-10T13:27:33;98282.81;;;3.63;100.00
68193;BME280;55012;47.562;18.414;2023-01-10T13:30:00;98263.19;;;3.59;100.00
68193;BME280;55012;47.562;18.414;2023-01-10T13:32:29;98271.84;;;3.56;100.00
68193;BME280;55012;47.562;18.414;2023-01-10T13:35:10;98317.16;;;3.52;100.00
68193;BME280;55012;47.562;18.414;2023-01-10T13:37:38;98295.75;;;3.52;100.00
68193;BME280;55012;47.562;18.414;2023-01-10T13:40:06;98285.06;;;3.52;100.00
68193;BME280;55012;47.562;18.414;2023-01-10T13:42:36;98317.63;;;3.54;100.00
68193;BME280;55012;47.562;18.414;2023-01-10T13:45:27;98280.06;;;3.51;100.00
68193;BME280;55012;47.562;18.414;2023-01-10T13:57:57;98299.22;;;3.53;100.00
68193;BME280;55012;47.562;18.414;2023-01-10T14:06:10;98306.94;;;3.46;100.00
68193;BME280;55012;47.562;18.414;2023-01-10T14:08:37;98330.22;;;3.45;100.00
68193;BME280;55012;47.562;18.414;2023-01-10T14:11:05;98313.72;;;3.43;100.00
68193;BME280;55012;47.562;18.414;2023-01-10T14:13:31;98310.41;;;3.46;100.00
68193;BME280;55012;47.562;18.414;2023-01-10T14:15:57;98355.06;;;3.46;100.00
68193;BME280;55012;47.562;18.414;2023-01-10T14:18:34;98338.09;;;3.50;100.00
68193;BME280;55012;47.562;18.414;2023-01-10T14:21:07;98325.97;;;3.53;100.00
68193;BME280;55012;47.562;18.414;2023-01-10T14:23:43;98313.06;;;3.55;100.00
68193;BME280;55012;47.562;18.414;2023-01-10T14:26:17;98311.16;;;3.55;100.00
68193;BME280;55012;47.562;18.414;2023-01-10T14:28:43;98311.78;;;3.61;100.00
68193;BME280;55012;47.562;18.414;2023-01-10T14:33:42;98333.03;;;3.57;100.00
68193;BME280;55012;47.562;18.414;2023-01-10T14:36:14;98342.28;;;3.60;100.00
68193;BME280;55012;47.562;18.414;2023-01-10T14:38:43;98339.16;;;3.58;100.00
68193;BME280;55012;47.562;18.414;2023-01-10T14:41:42;98397.84;;;3.54;100.00
68193;BME280;55012;47.562;18.414;2023-01-10T14:46:50;98403.66;;;3.56;100.00
68193;BME280;55012;47.562;18.414;2023-01-10T14:49:32;98376.94;;;3.56;100.00
68193;BME280;55012;47.562;18.414;2023-01-10T14:52:18;98375.03;;;3.57;100.00